Terminal Aerodrome Forecast
Issued by NWS

Home | Current Version | Previous Version | Graphics & Text | Print | Product List | Glossary Off
Versions: 1 2 3 4 5 6 7 8 9 10 11 12 13 14 15 16 17 18

000
FTUS43 KDDC 010903 AAB
TAFGCK
TAF AMD
KGCK 010903Z 0109/0206 33021G34KT P6SM OVC018
     FM011200 35015G25KT P6SM OVC015
     FM011500 36020G30KT P6SM OVC015
     FM012100 01015G25KT P6SM VCSH OVC015
     FM020300 35006KT P6SM -SHRA OVC010=

USA.gov is the U.S. government's official web portal to all federal, state and local government web resources and services.